LFKCLFKJ

Guest
Details From LFKC - St Catherine
To LFKJ - Napoleon Bonaparte
Flight Number -
Tags generated
Created
Modified
Stats Distance 37 nm / 68 km
Max Altitude 2,700 ft / 823 m
Waypoints 3
Social Downloads 1
Likes 0
Share VATSIM

Download

Looking for another format? Having issues loading an existing format? Contact us
Advertisement - Login to hide

Notes

Basic altitude profile: - Ascent Rate: 500ft/min - Ascent Speed: 80kts - Cruise Altitude: 3000ft - Cruise Speed: 110kts - Descent Rate: 500ft/min - Descent Speed: 60kts Options: - Use NATs: no - Use PACOTS: no - Use low airways: yes - Use high airways: no

Route

LFKC VICCO LFKJ

ID Type Via Altitude Latitude Longitude Leg Dist Tot Dist Heading (true) Name
O LFKC APT - 0 ft / 0 m 42.53076˚ 8.79292˚ - 0 nm - St Catherine
VICCO FIX - 2,700 ft / 823 m 42.13944˚ 8.81583˚ 23 nm 23 nm 178° / 178° -
O LFKJ APT - 0 ft / 0 m 41.92289˚ 8.79959˚ 13 nm 36 nm 183° / 183° Napoleon Bonaparte

Altitude Profile

Advertisement - Login to hide

LFKC

Details ICAO LFKC (CLY)
Name St Catherine
Region France
Timezone Europe/Paris (UTC+2.0)
Stats Elevation 208 ft / 63 m (AMSL)
Location 42.530750° 8.792982°
Runways 1
Magnetic Variation 2.415° E

METAR

LFKC 152000Z AUTO VRB02KT CAVOK 24/17 Q1015 NOSIG

Decode

TAF

TAF LFKC 151400Z 1515/1615 01010KT 9999 FEW050 TX31/1613Z TN19/1604Z TEMPO 1515/1518 01015G25KT TEMPO 1523/1606 18005KT TEMPO 1610/1615 01015G25KT

Decode

Departure Runways

ID Width Length Bearing (true/mag) Surface Threshold Overrun Markings Lighting
18 131 ft / 40 m 7,586 ft / 2,312 m 179.81° / 177.40° CONCRETE 0 ft / 0 m 0 ft / 0 m APP CENTERLINE EDGE THRESHOLD
36 131 ft / 40 m 7,586 ft / 2,312 m 359.81° / 357.40° CONCRETE 663 ft / 202 m 0 ft / 0 m APP CENTERLINE EDGE THRESHOLD ALSF-I

LFKJ

Details ICAO LFKJ (AJA)
Name Napoleon Bonaparte
Region France
Timezone Europe/Paris (UTC+2.0)
Stats Elevation 19 ft / 6 m (AMSL)
Location 41.921724° 8.801090°
Runways 1
Magnetic Variation 2.401° E

METAR

LFKJ 152000Z AUTO VRB03KT 9999 FEW068 26/19 Q1014 NOSIG

Decode

TAF

TAF LFKJ 151400Z 1515/1615 21010KT 9999 FEW040 TEMPO 1515/1516 FEW035CB BECMG 1518/1520 04005KT BECMG 1607/1609 23010KT

Decode

Destination Runways

ID Width Length Bearing (true/mag) Surface Threshold Overrun Markings Lighting
02 148 ft / 45 m 7,904 ft / 2,409 m 24.84° / 22.44° CONCRETE 0 ft / 0 m 161 ft / 49 m PREC-APP CENTERLINE EDGE THRESHOLD REIL-OMNI
20 148 ft / 45 m 7,904 ft / 2,409 m 204.85° / 202.45° CONCRETE 741 ft / 226 m 230 ft / 70 m PREC-APP CENTERLINE EDGE THRESHOLD REIL-OMNI

Approach Navaids

Runway Type Ident Frequency Range Bearing (true/mag) Slope Elevation
02 DME AC 110.30 MHz 27 nm / 50 km - - 18 ft / 5 m (AMSL)
02 OM OM - - 24.94° / 22.54 ° - 17 ft / 5 m (AMSL)
02 GS AC 110.30 MHz 27 nm / 50 km 24.85° / 22.45 ° 3.00° 19 ft / 6 m (AMSL)
02 LOC-ILS AC 110.30 MHz 27 nm / 50 km 24.85° / 22.45 ° - 19 ft / 6 m (AMSL)

Popular Alternatives